Taizz, Yemen
Current Conditions -  °F | °C
As of 8:00 PM on Friday 19 Dec 2014 (Local Time) from OYTZ Reporting Station
Few Clouds Few Clouds  
Wind Chill: 61°   Ceiling: Unl
Heat Index: 61°   Visibility: 6mi
Dew Point: 57°   Wind: 6mph
Humidity: 88%   Direction: 150°SSE
Pressure: 30.21"   Gusts: NA
Location:  13.6°N, 44.04°E
Report Text: OYTZ 191700Z 15005KT 9999 FEW015 16/14 Q1023
Loading
Personal Weather Stations






























Interactive Weather Map New forecast layout! Learn more

10-Day Weather Forecast

Advertisements
Track Severe Weather on mobile